sensor_id;sensor_type;location;lat;lon;timestamp;P1;durP1;ratioP1;P2;durP2;ratioP2
36379;SDS011;22411;53.016;18.632;2023-07-13T00:02:06;12.10;;;9.30;;
36379;SDS011;22411;53.016;18.632;2023-07-13T00:04:32;15.23;;;10.50;;
36379;SDS011;22411;53.016;18.632;2023-07-13T00:06:58;11.50;;;10.32;;
36379;SDS011;22411;53.016;18.632;2023-07-13T00:09:24;12.05;;;10.73;;
36379;SDS011;22411;53.016;18.632;2023-07-13T00:11:51;10.38;;;9.38;;
36379;SDS011;22411;53.016;18.632;2023-07-13T00:14:18;10.40;;;9.38;;
36379;SDS011;22411;53.016;18.632;2023-07-13T00:16:44;10.80;;;9.68;;
36379;SDS011;22411;53.016;18.632;2023-07-13T00:19:10;11.40;;;10.32;;
36379;SDS011;22411;53.016;18.632;2023-07-13T00:21:38;11.43;;;10.32;;
36379;SDS011;22411;53.016;18.632;2023-07-13T00:24:04;12.80;;;11.38;;
36379;SDS011;22411;53.016;18.632;2023-07-13T00:26:31;11.13;;;9.95;;
36379;SDS011;22411;53.016;18.632;2023-07-13T00:28:57;10.93;;;9.15;;
36379;SDS011;22411;53.016;18.632;2023-07-13T00:31:23;10.93;;;9.82;;
36379;SDS011;22411;53.016;18.632;2023-07-13T00:33:49;11.38;;;10.18;;
36379;SDS011;22411;53.016;18.632;2023-07-13T00:36:15;11.45;;;10.25;;
36379;SDS011;22411;53.016;18.632;2023-07-13T00:38:41;11.35;;;9.88;;
36379;SDS011;22411;53.016;18.632;2023-07-13T00:41:07;12.77;;;10.15;;
36379;SDS011;22411;53.016;18.632;2023-07-13T00:43:32;12.98;;;11.65;;
36379;SDS011;22411;53.016;18.632;2023-07-13T00:48:25;15.07;;;10.40;;
36379;SDS011;22411;53.016;18.632;2023-07-13T00:50:55;13.98;;;11.50;;
36379;SDS011;22411;53.016;18.632;2023-07-13T00:53:24;9.93;;;8.52;;
36379;SDS011;22411;53.016;18.632;2023-07-13T00:55:51;11.43;;;10.10;;
36379;SDS011;22411;53.016;18.632;2023-07-13T00:58:20;11.55;;;9.68;;
36379;SDS011;22411;53.016;18.632;2023-07-13T01:00:46;13.25;;;9.98;;
36379;SDS011;22411;53.016;18.632;2023-07-13T01:03:14;12.68;;;10.32;;
36379;SDS011;22411;53.016;18.632;2023-07-13T01:05:40;13.18;;;10.50;;
36379;SDS011;22411;53.016;18.632;2023-07-13T01:08:06;14.02;;;11.70;;
36379;SDS011;22411;53.016;18.632;2023-07-13T01:10:33;13.57;;;11.23;;
36379;SDS011;22411;53.016;18.632;2023-07-13T01:13:07;17.33;;;11.52;;
36379;SDS011;22411;53.016;18.632;2023-07-13T01:15:39;12.52;;;11.25;;
36379;SDS011;22411;53.016;18.632;2023-07-13T01:18:11;15.02;;;11.88;;
36379;SDS011;22411;53.016;18.632;2023-07-13T01:20:40;13.63;;;11.10;;
36379;SDS011;22411;53.016;18.632;2023-07-13T01:23:07;14.20;;;12.30;;
36379;SDS011;22411;53.016;18.632;2023-07-13T01:25:35;13.52;;;11.35;;
36379;SDS011;22411;53.016;18.632;2023-07-13T01:28:06;11.70;;;10.50;;
36379;SDS011;22411;53.016;18.632;2023-07-13T01:30:35;11.13;;;8.90;;
36379;SDS011;22411;53.016;18.632;2023-07-13T01:33:01;13.55;;;10.82;;
36379;SDS011;22411;53.016;18.632;2023-07-13T01:35:27;10.80;;;9.70;;
36379;SDS011;22411;53.016;18.632;2023-07-13T01:37:53;15.95;;;10.27;;
36379;SDS011;22411;53.016;18.632;2023-07-13T01:40:19;14.57;;;10.35;;
36379;SDS011;22411;53.016;18.632;2023-07-13T01:42:45;13.52;;;11.38;;
36379;SDS011;22411;53.016;18.632;2023-07-13T01:45:11;12.27;;;11.05;;
36379;SDS011;22411;53.016;18.632;2023-07-13T01:47:37;17.08;;;11.35;;
36379;SDS011;22411;53.016;18.632;2023-07-13T01:50:03;13.57;;;11.00;;
36379;SDS011;22411;53.016;18.632;2023-07-13T01:52:29;13.82;;;10.77;;
36379;SDS011;22411;53.016;18.632;2023-07-13T01:54:55;12.45;;;11.10;;
36379;SDS011;22411;53.016;18.632;2023-07-13T01:57:20;12.60;;;11.15;;
36379;SDS011;22411;53.016;18.632;2023-07-13T01:59:46;12.63;;;10.68;;
36379;SDS011;22411;53.016;18.632;2023-07-13T02:02:11;11.65;;;10.25;;
36379;SDS011;22411;53.016;18.632;2023-07-13T02:04:37;14.15;;;10.80;;
36379;SDS011;22411;53.016;18.632;2023-07-13T02:07:03;13.05;;;10.20;;
36379;SDS011;22411;53.016;18.632;2023-07-13T02:09:29;12.98;;;10.75;;
36379;SDS011;22411;53.016;18.632;2023-07-13T02:11:54;12.82;;;9.98;;
36379;SDS011;22411;53.016;18.632;2023-07-13T02:14:20;11.18;;;10.05;;
36379;SDS011;22411;53.016;18.632;2023-07-13T02:16:45;11.57;;;10.43;;
36379;SDS011;22411;53.016;18.632;2023-07-13T02:19:11;10.70;;;9.15;;
36379;SDS011;22411;53.016;18.632;2023-07-13T02:21:37;15.57;;;11.75;;
36379;SDS011;22411;53.016;18.632;2023-07-13T02:24:02;11.13;;;10.02;;
36379;SDS011;22411;53.016;18.632;2023-07-13T02:26:28;13.05;;;10.75;;
36379;SDS011;22411;53.016;18.632;2023-07-13T02:28:54;11.77;;;10.02;;
36379;SDS011;22411;53.016;18.632;2023-07-13T02:31:20;12.18;;;9.80;;
36379;SDS011;22411;53.016;18.632;2023-07-13T02:33:46;12.27;;;10.65;;
36379;SDS011;22411;53.016;18.632;2023-07-13T02:36:11;12.00;;;10.65;;
36379;SDS011;22411;53.016;18.632;2023-07-13T02:38:39;13.07;;;11.27;;
36379;SDS011;22411;53.016;18.632;2023-07-13T02:41:05;14.13;;;11.02;;
36379;SDS011;22411;53.016;18.632;2023-07-13T02:43:32;15.18;;;11.40;;
36379;SDS011;22411;53.016;18.632;2023-07-13T02:45:58;15.35;;;11.50;;
36379;SDS011;22411;53.016;18.632;2023-07-13T02:48:29;13.27;;;11.32;;
36379;SDS011;22411;53.016;18.632;2023-07-13T02:50:55;12.50;;;11.23;;
36379;SDS011;22411;53.016;18.632;2023-07-13T02:53:21;12.93;;;9.98;;
36379;SDS011;22411;53.016;18.632;2023-07-13T02:55:46;12.80;;;11.35;;
36379;SDS011;22411;53.016;18.632;2023-07-13T02:58:13;12.80;;;10.70;;
36379;SDS011;22411;53.016;18.632;2023-07-13T03:00:42;15.55;;;11.50;;
36379;SDS011;22411;53.016;18.632;2023-07-13T03:03:09;12.18;;;10.40;;
36379;SDS011;22411;53.016;18.632;2023-07-13T03:05:36;13.02;;;10.98;;
36379;SDS011;22411;53.016;18.632;2023-07-13T03:08:03;16.92;;;11.30;;
36379;SDS011;22411;53.016;18.632;2023-07-13T03:10:29;14.30;;;9.77;;
36379;SDS011;22411;53.016;18.632;2023-07-13T03:12:55;12.85;;;9.50;;
36379;SDS011;22411;53.016;18.632;2023-07-13T03:15:20;11.77;;;10.38;;
36379;SDS011;22411;53.016;18.632;2023-07-13T03:17:46;12.13;;;9.95;;
36379;SDS011;22411;53.016;18.632;2023-07-13T03:20:12;13.00;;;9.25;;
36379;SDS011;22411;53.016;18.632;2023-07-13T03:22:38;19.75;;;9.77;;
36379;SDS011;22411;53.016;18.632;2023-07-13T03:25:04;10.95;;;9.85;;
36379;SDS011;22411;53.016;18.632;2023-07-13T03:27:30;11.52;;;9.07;;
36379;SDS011;22411;53.016;18.632;2023-07-13T03:29:56;11.52;;;9.77;;
36379;SDS011;22411;53.016;18.632;2023-07-13T03:32:21;11.75;;;9.82;;
36379;SDS011;22411;53.016;18.632;2023-07-13T03:34:47;10.52;;;8.90;;
36379;SDS011;22411;53.016;18.632;2023-07-13T03:37:13;10.70;;;9.60;;
36379;SDS011;22411;53.016;18.632;2023-07-13T03:39:40;13.18;;;10.40;;
36379;SDS011;22411;53.016;18.632;2023-07-13T03:42:06;12.00;;;9.07;;
36379;SDS011;22411;53.016;18.632;2023-07-13T03:44:32;10.98;;;9.88;;
36379;SDS011;22411;53.016;18.632;2023-07-13T03:46:58;13.70;;;9.10;;
36379;SDS011;22411;53.016;18.632;2023-07-13T03:49:23;22.73;;;9.02;;
36379;SDS011;22411;53.016;18.632;2023-07-13T03:51:49;12.30;;;8.32;;
36379;SDS011;22411;53.016;18.632;2023-07-13T03:54:15;8.23;;;7.43;;
36379;SDS011;22411;53.016;18.632;2023-07-13T03:56:40;9.23;;;8.38;;
36379;SDS011;22411;53.016;18.632;2023-07-13T03:59:06;9.82;;;8.23;;
36379;SDS011;22411;53.016;18.632;2023-07-13T04:01:32;10.32;;;8.15;;
36379;SDS011;22411;53.016;18.632;2023-07-13T04:03:57;8.38;;;7.50;;
36379;SDS011;22411;53.016;18.632;2023-07-13T04:06:25;8.75;;;7.57;;
36379;SDS011;22411;53.016;18.632;2023-07-13T04:08:53;13.75;;;8.48;;
36379;SDS011;22411;53.016;18.632;2023-07-13T04:11:21;12.13;;;8.13;;
36379;SDS011;22411;53.016;18.632;2023-07-13T04:13:49;11.95;;;8.20;;
36379;SDS011;22411;53.016;18.632;2023-07-13T04:16:16;11.15;;;7.95;;
36379;SDS011;22411;53.016;18.632;2023-07-13T04:18:43;10.82;;;7.57;;
36379;SDS011;22411;53.016;18.632;2023-07-13T04:21:09;8.70;;;7.72;;
36379;SDS011;22411;53.016;18.632;2023-07-13T04:23:36;9.98;;;7.13;;
36379;SDS011;22411;53.016;18.632;2023-07-13T04:26:03;9.52;;;6.80;;
36379;SDS011;22411;53.016;18.632;2023-07-13T04:28:29;9.18;;;6.95;;
36379;SDS011;22411;53.016;18.632;2023-07-13T04:30:55;8.48;;;7.07;;
36379;SDS011;22411;53.016;18.632;2023-07-13T04:33:21;9.23;;;7.20;;
36379;SDS011;22411;53.016;18.632;2023-07-13T04:35:48;11.63;;;7.72;;
36379;SDS011;22411;53.016;18.632;2023-07-13T04:38:22;12.05;;;7.20;;
36379;SDS011;22411;53.016;18.632;2023-07-13T04:40:50;11.63;;;7.20;;
36379;SDS011;22411;53.016;18.632;2023-07-13T04:43:16;7.28;;;6.53;;
36379;SDS011;22411;53.016;18.632;2023-07-13T04:45:42;9.25;;;6.32;;
36379;SDS011;22411;53.016;18.632;2023-07-13T04:48:08;10.77;;;7.63;;
36379;SDS011;22411;53.016;18.632;2023-07-13T04:50:36;10.93;;;6.97;;
36379;SDS011;22411;53.016;18.632;2023-07-13T04:53:02;8.20;;;6.05;;
36379;SDS011;22411;53.016;18.632;2023-07-13T04:55:29;8.90;;;6.93;;
36379;SDS011;22411;53.016;18.632;2023-07-13T04:57:56;12.80;;;7.90;;
36379;SDS011;22411;53.016;18.632;2023-07-13T05:00:24;9.73;;;7.75;;
36379;SDS011;22411;53.016;18.632;2023-07-13T05:02:50;15.90;;;8.48;;
36379;SDS011;22411;53.016;18.632;2023-07-13T05:05:17;10.30;;;9.23;;
36379;SDS011;22411;53.016;18.632;2023-07-13T05:07:43;10.15;;;8.68;;
36379;SDS011;22411;53.016;18.632;2023-07-13T05:10:09;10.40;;;9.02;;
36379;SDS011;22411;53.016;18.632;2023-07-13T05:12:35;11.07;;;8.88;;
36379;SDS011;22411;53.016;18.632;2023-07-13T05:15:01;10.88;;;9.48;;
36379;SDS011;22411;53.016;18.632;2023-07-13T05:17:28;10.60;;;8.80;;
36379;SDS011;22411;53.016;18.632;2023-07-13T05:19:54;10.73;;;8.00;;
36379;SDS011;22411;53.016;18.632;2023-07-13T05:22:19;16.55;;;8.20;;
36379;SDS011;22411;53.016;18.632;2023-07-13T05:24:45;15.40;;;7.80;;
36379;SDS011;22411;53.016;18.632;2023-07-13T05:27:11;9.95;;;7.43;;
36379;SDS011;22411;53.016;18.632;2023-07-13T05:29:36;11.10;;;7.25;;
36379;SDS011;22411;53.016;18.632;2023-07-13T05:32:02;10.27;;;6.80;;
36379;SDS011;22411;53.016;18.632;2023-07-13T05:34:29;8.20;;;7.05;;
36379;SDS011;22411;53.016;18.632;2023-07-13T05:36:54;6.75;;;6.05;;
36379;SDS011;22411;53.016;18.632;2023-07-13T05:39:20;8.38;;;5.80;;
36379;SDS011;22411;53.016;18.632;2023-07-13T05:41:46;7.22;;;5.25;;
36379;SDS011;22411;53.016;18.632;2023-07-13T05:44:12;7.63;;;5.43;;
36379;SDS011;22411;53.016;18.632;2023-07-13T05:46:37;9.27;;;4.85;;
36379;SDS011;22411;53.016;18.632;2023-07-13T05:49:03;6.88;;;4.72;;
36379;SDS011;22411;53.016;18.632;2023-07-13T05:51:29;11.90;;;5.07;;
36379;SDS011;22411;53.016;18.632;2023-07-13T05:53:55;7.55;;;4.55;;
36379;SDS011;22411;53.016;18.632;2023-07-13T05:56:21;7.65;;;3.95;;
36379;SDS011;22411;53.016;18.632;2023-07-13T05:58:47;12.00;;;3.58;;
36379;SDS011;22411;53.016;18.632;2023-07-13T06:01:14;9.13;;;3.20;;
36379;SDS011;22411;53.016;18.632;2023-07-13T06:03:40;29.05;;;6.60;;
36379;SDS011;22411;53.016;18.632;2023-07-13T06:06:07;7.18;;;3.60;;
36379;SDS011;22411;53.016;18.632;2023-07-13T06:08:34;14.10;;;6.38;;
36379;SDS011;22411;53.016;18.632;2023-07-13T06:11:07;10.35;;;3.85;;
36379;SDS011;22411;53.016;18.632;2023-07-13T06:13:35;13.73;;;3.05;;
36379;SDS011;22411;53.016;18.632;2023-07-13T06:16:01;10.77;;;2.85;;
36379;SDS011;22411;53.016;18.632;2023-07-13T06:18:30;7.60;;;2.13;;
36379;SDS011;22411;53.016;18.632;2023-07-13T06:20:59;6.25;;;2.17;;
36379;SDS011;22411;53.016;18.632;2023-07-13T06:23:25;20.83;;;3.95;;
36379;SDS011;22411;53.016;18.632;2023-07-13T06:25:51;8.45;;;2.83;;
36379;SDS011;22411;53.016;18.632;2023-07-13T06:28:17;9.98;;;2.95;;
36379;SDS011;22411;53.016;18.632;2023-07-13T06:30:44;9.18;;;2.58;;
36379;SDS011;22411;53.016;18.632;2023-07-13T06:33:09;13.15;;;3.10;;
36379;SDS011;22411;53.016;18.632;2023-07-13T06:35:35;9.23;;;3.15;;
36379;SDS011;22411;53.016;18.632;2023-07-13T06:38:01;6.65;;;2.75;;
36379;SDS011;22411;53.016;18.632;2023-07-13T06:40:27;7.55;;;1.92;;
36379;SDS011;22411;53.016;18.632;2023-07-13T06:42:54;7.88;;;2.00;;
36379;SDS011;22411;53.016;18.632;2023-07-13T06:45:19;5.65;;;1.40;;
36379;SDS011;22411;53.016;18.632;2023-07-13T06:47:45;4.28;;;1.40;;
36379;SDS011;22411;53.016;18.632;2023-07-13T06:50:11;6.82;;;1.95;;
36379;SDS011;22411;53.016;18.632;2023-07-13T06:52:37;4.97;;;2.28;;
36379;SDS011;22411;53.016;18.632;2023-07-13T06:55:02;6.10;;;2.42;;
36379;SDS011;22411;53.016;18.632;2023-07-13T06:57:28;5.88;;;1.70;;
36379;SDS011;22411;53.016;18.632;2023-07-13T06:59:54;7.30;;;5.07;;
36379;SDS011;22411;53.016;18.632;2023-07-13T07:02:19;7.68;;;2.72;;
36379;SDS011;22411;53.016;18.632;2023-07-13T07:04:45;4.35;;;1.35;;
36379;SDS011;22411;53.016;18.632;2023-07-13T07:07:11;5.15;;;1.70;;
36379;SDS011;22411;53.016;18.632;2023-07-13T07:09:36;5.07;;;1.40;;
36379;SDS011;22411;53.016;18.632;2023-07-13T07:12:02;6.53;;;1.75;;
36379;SDS011;22411;53.016;18.632;2023-07-13T07:14:28;5.65;;;1.60;;
36379;SDS011;22411;53.016;18.632;2023-07-13T07:16:55;8.25;;;1.55;;
36379;SDS011;22411;53.016;18.632;2023-07-13T07:19:20;7.90;;;1.55;;
36379;SDS011;22411;53.016;18.632;2023-07-13T07:21:46;7.95;;;1.65;;
36379;SDS011;22411;53.016;18.632;2023-07-13T07:24:11;7.10;;;1.20;;
36379;SDS011;22411;53.016;18.632;2023-07-13T07:26:37;4.07;;;1.50;;
36379;SDS011;22411;53.016;18.632;2023-07-13T07:29:03;2.63;;;1.25;;
36379;SDS011;22411;53.016;18.632;2023-07-13T07:31:29;10.27;;;1.80;;
36379;SDS011;22411;53.016;18.632;2023-07-13T07:33:54;7.88;;;1.52;;
36379;SDS011;22411;53.016;18.632;2023-07-13T07:36:20;6.70;;;1.80;;
36379;SDS011;22411;53.016;18.632;2023-07-13T07:38:46;5.68;;;1.60;;
36379;SDS011;22411;53.016;18.632;2023-07-13T07:41:12;4.50;;;1.48;;
36379;SDS011;22411;53.016;18.632;2023-07-13T07:43:38;8.23;;;1.65;;
36379;SDS011;22411;53.016;18.632;2023-07-13T07:46:03;3.20;;;1.00;;
36379;SDS011;22411;53.016;18.632;2023-07-13T07:48:29;5.80;;;1.35;;
36379;SDS011;22411;53.016;18.632;2023-07-13T07:50:55;3.90;;;1.17;;
36379;SDS011;22411;53.016;18.632;2023-07-13T07:53:21;4.18;;;0.70;;
36379;SDS011;22411;53.016;18.632;2023-07-13T07:55:46;6.53;;;0.90;;
36379;SDS011;22411;53.016;18.632;2023-07-13T07:58:12;3.65;;;0.70;;
36379;SDS011;22411;53.016;18.632;2023-07-13T08:00:38;5.90;;;1.55;;
36379;SDS011;22411;53.016;18.632;2023-07-13T08:03:04;5.40;;;0.73;;
36379;SDS011;22411;53.016;18.632;2023-07-13T08:05:29;7.82;;;1.08;;
36379;SDS011;22411;53.016;18.632;2023-07-13T08:07:55;3.17;;;0.88;;
36379;SDS011;22411;53.016;18.632;2023-07-13T08:10:21;2.90;;;0.70;;
36379;SDS011;22411;53.016;18.632;2023-07-13T08:12:46;1.52;;;0.50;;
36379;SDS011;22411;53.016;18.632;2023-07-13T08:15:13;4.03;;;0.80;;
36379;SDS011;22411;53.016;18.632;2023-07-13T08:17:40;2.65;;;0.50;;
36379;SDS011;22411;53.016;18.632;2023-07-13T08:20:06;3.05;;;0.40;;
36379;SDS011;22411;53.016;18.632;2023-07-13T08:22:34;3.25;;;0.77;;
36379;SDS011;22411;53.016;18.632;2023-07-13T08:25:00;3.35;;;0.88;;
36379;SDS011;22411;53.016;18.632;2023-07-13T08:27:26;3.30;;;0.85;;
36379;SDS011;22411;53.016;18.632;2023-07-13T08:29:53;3.67;;;0.88;;
36379;SDS011;22411;53.016;18.632;2023-07-13T08:32:19;4.93;;;0.77;;
36379;SDS011;22411;53.016;18.632;2023-07-13T08:34:46;3.55;;;0.77;;
36379;SDS011;22411;53.016;18.632;2023-07-13T08:37:12;3.75;;;1.10;;
36379;SDS011;22411;53.016;18.632;2023-07-13T08:39:39;5.88;;;1.02;;
36379;SDS011;22411;53.016;18.632;2023-07-13T08:42:05;5.32;;;0.75;;
36379;SDS011;22411;53.016;18.632;2023-07-13T08:44:47;3.65;;;1.25;;
36379;SDS011;22411;53.016;18.632;2023-07-13T08:47:27;5.28;;;1.13;;
36379;SDS011;22411;53.016;18.632;2023-07-13T08:49:55;4.47;;;1.40;;
36379;SDS011;22411;53.016;18.632;2023-07-13T08:52:43;3.60;;;1.15;;
36379;SDS011;22411;53.016;18.632;2023-07-13T08:57:46;4.18;;;1.15;;
36379;SDS011;22411;53.016;18.632;2023-07-13T09:00:19;5.70;;;1.63;;
36379;SDS011;22411;53.016;18.632;2023-07-13T09:02:46;5.35;;;1.20;;
36379;SDS011;22411;53.016;18.632;2023-07-13T09:05:25;4.53;;;1.00;;
36379;SDS011;22411;53.016;18.632;2023-07-13T09:10:47;4.20;;;1.23;;
36379;SDS011;22411;53.016;18.632;2023-07-13T09:13:23;6.50;;;1.85;;
36379;SDS011;22411;53.016;18.632;2023-07-13T09:15:53;3.85;;;1.17;;
36379;SDS011;22411;53.016;18.632;2023-07-13T09:18:23;3.53;;;2.05;;
36379;SDS011;22411;53.016;18.632;2023-07-13T09:21:02;6.30;;;1.20;;
36379;SDS011;22411;53.016;18.632;2023-07-13T09:23:30;6.38;;;1.90;;
36379;SDS011;22411;53.016;18.632;2023-07-13T09:26:02;5.38;;;1.52;;
36379;SDS011;22411;53.016;18.632;2023-07-13T09:28:37;4.57;;;1.33;;
36379;SDS011;22411;53.016;18.632;2023-07-13T09:31:10;4.20;;;1.55;;
36379;SDS011;22411;53.016;18.632;2023-07-13T09:33:40;6.30;;;1.80;;
36379;SDS011;22411;53.016;18.632;2023-07-13T09:36:49;2.00;;;0.93;;
36379;SDS011;22411;53.016;18.632;2023-07-13T09:39:02;3.92;;;1.17;;
36379;SDS011;22411;53.016;18.632;2023-07-13T09:41:34;4.00;;;1.00;;
36379;SDS011;22411;53.016;18.632;2023-07-13T09:44:13;3.78;;;0.55;;
36379;SDS011;22411;53.016;18.632;2023-07-13T09:46:59;5.93;;;0.90;;
36379;SDS011;22411;53.016;18.632;2023-07-13T09:49:29;3.05;;;0.52;;
36379;SDS011;22411;53.016;18.632;2023-07-13T09:54:29;1.88;;;0.30;;
36379;SDS011;22411;53.016;18.632;2023-07-13T09:56:58;4.75;;;0.75;;
36379;SDS011;22411;53.016;18.632;2023-07-13T09:59:28;1.77;;;0.40;;
36379;SDS011;22411;53.016;18.632;2023-07-13T10:01:55;2.40;;;0.57;;
36379;SDS011;22411;53.016;18.632;2023-07-13T10:04:26;4.05;;;0.52;;
36379;SDS011;22411;53.016;18.632;2023-07-13T10:07:07;1.73;;;0.40;;
36379;SDS011;22411;53.016;18.632;2023-07-13T10:09:34;1.50;;;0.40;;
36379;SDS011;22411;53.016;18.632;2023-07-13T10:12:00;1.92;;;0.40;;
36379;SDS011;22411;53.016;18.632;2023-07-13T10:14:26;2.28;;;0.47;;
36379;SDS011;22411;53.016;18.632;2023-07-13T10:16:57;2.40;;;0.45;;
36379;SDS011;22411;53.016;18.632;2023-07-13T10:19:28;3.60;;;0.90;;
36379;SDS011;22411;53.016;18.632;2023-07-13T10:24:30;1.30;;;0.35;;
36379;SDS011;22411;53.016;18.632;2023-07-13T10:29:30;2.40;;;0.93;;
36379;SDS011;22411;53.016;18.632;2023-07-13T10:32:01;2.72;;;0.50;;
36379;SDS011;22411;53.016;18.632;2023-07-13T10:34:28;3.70;;;0.47;;
36379;SDS011;22411;53.016;18.632;2023-07-13T10:36:54;2.88;;;0.60;;
36379;SDS011;22411;53.016;18.632;2023-07-13T10:39:24;3.42;;;0.50;;
36379;SDS011;22411;53.016;18.632;2023-07-13T10:41:58;2.00;;;0.50;;
36379;SDS011;22411;53.016;18.632;2023-07-13T10:44:28;3.33;;;0.65;;
36379;SDS011;22411;53.016;18.632;2023-07-13T10:46:57;2.22;;;0.30;;
36379;SDS011;22411;53.016;18.632;2023-07-13T10:49:26;2.28;;;0.60;;
36379;SDS011;22411;53.016;18.632;2023-07-13T10:51:54;2.80;;;0.80;;
36379;SDS011;22411;53.016;18.632;2023-07-13T10:54:21;8.45;;;1.58;;
36379;SDS011;22411;53.016;18.632;2023-07-13T10:56:53;7.28;;;2.00;;
36379;SDS011;22411;53.016;18.632;2023-07-13T10:59:34;6.32;;;1.45;;
36379;SDS011;22411;53.016;18.632;2023-07-13T11:04:39;4.70;;;1.20;;
36379;SDS011;22411;53.016;18.632;2023-07-13T11:07:10;3.92;;;1.45;;
36379;SDS011;22411;53.016;18.632;2023-07-13T11:09:52;5.40;;;1.45;;
36379;SDS011;22411;53.016;18.632;2023-07-13T11:20:04;3.65;;;1.02;;
36379;SDS011;22411;53.016;18.632;2023-07-13T11:25:27;5.80;;;1.35;;
36379;SDS011;22411;53.016;18.632;2023-07-13T11:30:37;4.63;;;1.48;;
36379;SDS011;22411;53.016;18.632;2023-07-13T11:35:50;3.63;;;1.15;;
36379;SDS011;22411;53.016;18.632;2023-07-13T11:38:21;4.60;;;1.73;;
36379;SDS011;22411;53.016;18.632;2023-07-13T11:40:53;3.70;;;1.13;;
36379;SDS011;22411;53.016;18.632;2023-07-13T11:43:21;2.17;;;1.20;;
36379;SDS011;22411;53.016;18.632;2023-07-13T11:45:50;3.72;;;1.58;;
36379;SDS011;22411;53.016;18.632;2023-07-13T11:48:27;4.18;;;1.45;;
36379;SDS011;22411;53.016;18.632;2023-07-13T11:51:15;2.90;;;1.00;;
36379;SDS011;22411;53.016;18.632;2023-07-13T11:53:47;1.65;;;0.52;;
36379;SDS011;22411;53.016;18.632;2023-07-13T11:56:15;4.47;;;1.25;;
36379;SDS011;22411;53.016;18.632;2023-07-13T11:58:41;2.78;;;0.80;;
36379;SDS011;22411;53.016;18.632;2023-07-13T12:01:10;3.38;;;1.30;;
36379;SDS011;22411;53.016;18.632;2023-07-13T12:03:43;2.10;;;0.75;;
36379;SDS011;22411;53.016;18.632;2023-07-13T12:09:12;2.33;;;0.95;;
36379;SDS011;22411;53.016;18.632;2023-07-13T12:11:41;5.18;;;1.95;;
36379;SDS011;22411;53.016;18.632;2023-07-13T12:14:17;3.50;;;1.65;;
36379;SDS011;22411;53.016;18.632;2023-07-13T12:16:45;2.67;;;1.13;;
36379;SDS011;22411;53.016;18.632;2023-07-13T12:19:19;3.75;;;1.23;;
36379;SDS011;22411;53.016;18.632;2023-07-13T12:21:47;2.95;;;1.25;;
36379;SDS011;22411;53.016;18.632;2023-07-13T12:24:16;3.38;;;1.02;;
36379;SDS011;22411;53.016;18.632;2023-07-13T12:26:43;1.73;;;0.60;;
36379;SDS011;22411;53.016;18.632;2023-07-13T12:29:11;1.58;;;0.63;;
36379;SDS011;22411;53.016;18.632;2023-07-13T12:31:46;2.88;;;1.00;;
36379;SDS011;22411;53.016;18.632;2023-07-13T12:34:17;2.83;;;0.80;;
36379;SDS011;22411;53.016;18.632;2023-07-13T12:36:52;3.75;;;0.80;;
36379;SDS011;22411;53.016;18.632;2023-07-13T12:41:45;1.52;;;0.55;;
36379;SDS011;22411;53.016;18.632;2023-07-13T12:44:16;1.55;;;0.60;;
36379;SDS011;22411;53.016;18.632;2023-07-13T12:46:52;3.92;;;1.25;;
36379;SDS011;22411;53.016;18.632;2023-07-13T12:49:22;3.53;;;1.10;;
36379;SDS011;22411;53.016;18.632;2023-07-13T12:51:50;3.42;;;1.20;;
36379;SDS011;22411;53.016;18.632;2023-07-13T12:54:17;3.45;;;1.02;;
36379;SDS011;22411;53.016;18.632;2023-07-13T12:56:44;4.28;;;1.30;;
36379;SDS011;22411;53.016;18.632;2023-07-13T12:59:17;3.00;;;0.85;;
36379;SDS011;22411;53.016;18.632;2023-07-13T13:01:45;4.88;;;0.90;;
36379;SDS011;22411;53.016;18.632;2023-07-13T13:04:12;2.08;;;0.82;;
36379;SDS011;22411;53.016;18.632;2023-07-13T13:06:38;2.35;;;0.70;;
36379;SDS011;22411;53.016;18.632;2023-07-13T13:09:09;2.70;;;0.60;;
36379;SDS011;22411;53.016;18.632;2023-07-13T13:11:38;2.78;;;0.90;;
36379;SDS011;22411;53.016;18.632;2023-07-13T13:14:05;1.35;;;0.68;;
36379;SDS011;22411;53.016;18.632;2023-07-13T13:16:33;3.65;;;0.57;;
36379;SDS011;22411;53.016;18.632;2023-07-13T13:19:02;2.92;;;0.90;;
36379;SDS011;22411;53.016;18.632;2023-07-13T13:21:37;2.55;;;0.70;;
36379;SDS011;22411;53.016;18.632;2023-07-13T13:24:04;2.30;;;0.60;;
36379;SDS011;22411;53.016;18.632;2023-07-13T13:26:36;5.57;;;0.85;;
36379;SDS011;22411;53.016;18.632;2023-07-13T13:29:04;2.28;;;0.68;;
36379;SDS011;22411;53.016;18.632;2023-07-13T13:31:38;1.63;;;0.57;;
36379;SDS011;22411;53.016;18.632;2023-07-13T13:34:07;3.10;;;0.73;;
36379;SDS011;22411;53.016;18.632;2023-07-13T13:36:33;4.00;;;0.80;;
36379;SDS011;22411;53.016;18.632;2023-07-13T13:38:59;1.25;;;0.55;;
36379;SDS011;22411;53.016;18.632;2023-07-13T13:41:27;2.75;;;1.05;;
36379;SDS011;22411;53.016;18.632;2023-07-13T13:43:53;4.32;;;1.13;;
36379;SDS011;22411;53.016;18.632;2023-07-13T13:46:21;3.20;;;1.17;;
36379;SDS011;22411;53.016;18.632;2023-07-13T13:48:50;5.18;;;1.75;;
36379;SDS011;22411;53.016;18.632;2023-07-13T13:51:17;4.32;;;1.30;;
36379;SDS011;22411;53.016;18.632;2023-07-13T13:53:45;6.93;;;2.33;;
36379;SDS011;22411;53.016;18.632;2023-07-13T13:56:12;3.45;;;2.03;;
36379;SDS011;22411;53.016;18.632;2023-07-13T13:58:39;4.78;;;1.95;;
36379;SDS011;22411;53.016;18.632;2023-07-13T14:01:08;5.25;;;1.80;;
36379;SDS011;22411;53.016;18.632;2023-07-13T14:03:38;4.05;;;1.83;;
36379;SDS011;22411;53.016;18.632;2023-07-13T14:06:04;6.22;;;2.63;;
36379;SDS011;22411;53.016;18.632;2023-07-13T14:08:30;4.95;;;1.90;;
36379;SDS011;22411;53.016;18.632;2023-07-13T14:10:56;6.40;;;1.52;;
36379;SDS011;22411;53.016;18.632;2023-07-13T14:13:28;3.55;;;1.90;;
36379;SDS011;22411;53.016;18.632;2023-07-13T14:15:56;4.57;;;1.48;;
36379;SDS011;22411;53.016;18.632;2023-07-13T14:18:22;2.97;;;1.33;;
36379;SDS011;22411;53.016;18.632;2023-07-13T14:20:49;10.20;;;7.90;;
36379;SDS011;22411;53.016;18.632;2023-07-13T14:23:17;3.08;;;0.98;;
36379;SDS011;22411;53.016;18.632;2023-07-13T14:25:44;4.35;;;1.27;;
36379;SDS011;22411;53.016;18.632;2023-07-13T14:30:45;3.50;;;0.90;;
36379;SDS011;22411;53.016;18.632;2023-07-13T14:33:12;2.58;;;0.65;;
36379;SDS011;22411;53.016;18.632;2023-07-13T14:35:38;4.18;;;1.10;;
36379;SDS011;22411;53.016;18.632;2023-07-13T14:38:04;3.40;;;0.90;;
36379;SDS011;22411;53.016;18.632;2023-07-13T14:40:33;1.95;;;0.70;;
36379;SDS011;22411;53.016;18.632;2023-07-13T14:42:58;2.65;;;0.75;;
36379;SDS011;22411;53.016;18.632;2023-07-13T14:45:24;2.13;;;0.50;;
36379;SDS011;22411;53.016;18.632;2023-07-13T14:47:51;2.13;;;0.57;;
36379;SDS011;22411;53.016;18.632;2023-07-13T14:50:18;2.50;;;0.43;;
36379;SDS011;22411;53.016;18.632;2023-07-13T14:52:46;2.75;;;0.60;;
36379;SDS011;22411;53.016;18.632;2023-07-13T14:55:13;1.40;;;0.40;;
36379;SDS011;22411;53.016;18.632;2023-07-13T14:57:42;1.90;;;0.40;;
36379;SDS011;22411;53.016;18.632;2023-07-13T15:00:17;3.63;;;0.70;;
36379;SDS011;22411;53.016;18.632;2023-07-13T15:02:48;2.47;;;0.52;;
36379;SDS011;22411;53.016;18.632;2023-07-13T15:05:23;2.00;;;0.55;;
36379;SDS011;22411;53.016;18.632;2023-07-13T15:07:51;1.00;;;0.30;;
36379;SDS011;22411;53.016;18.632;2023-07-13T15:10:23;1.00;;;0.30;;
36379;SDS011;22411;53.016;18.632;2023-07-13T15:12:56;2.58;;;0.50;;
36379;SDS011;22411;53.016;18.632;2023-07-13T15:15:26;1.55;;;0.20;;